Iwanui, Waitara Historical Data
 
Daily Summary for February 18, 2018 Units:  Metric    English   Both
« Previous Day
Next Day »
Daily Weekly Monthly Yearly Custom
  Current: High: Low: Average:
Temperature: 25.7 °C 27.9 °C 18.2 °C 22.2 °C
Dew Point: 19.8 °C 23.4 °C 17.8 °C 19.9 °C
Humidity: 70% 98% 65% 88%
Wind Speed: 6.1km/h 17.2km/h 0.0km/h 4.2km/h
Wind Gust: 12.2km/h 21.9km/h - -
WindWNW - - NW
Pressure: 1016.8 hPa 1018.5 hPa 1016.5 hPa -
Precipitation: 2.0 mm      
Historical Graphs
 
 
Tabular Data for February 18, 2018
Time Temperature Dew Point Pressure Wind Wind Speed Wind Gust Humidity Rainfall Rate (Hourly)
00:04 18.8 °C 18.2 °C 1017.2 hPa Calm     96% 0.0 mm
00:09 18.8 °C 18.2 °C 1017.2 hPa Calm   1.1 km/h 96% 0.0 mm
00:14 18.7 °C 18.1 °C 1017.2 hPa Calm   1.1 km/h 96% 0.0 mm
00:19 18.7 °C 18.1 °C 1017.2 hPa Calm   1.1 km/h 96% 0.0 mm
00:24 18.7 °C 18.1 °C 1017.2 hPa Calm     96% 0.0 mm
00:30 18.7 °C 18.1 °C 1017.2 hPa Calm     96% 0.0 mm
00:35 18.7 °C 18.1 °C 1017.2 hPa Calm     96% 0.0 mm
00:40 18.6 °C 17.9 °C 1017.2 hPa Calm     96% 0.0 mm
00:45 18.4 °C 17.8 °C 1017.2 hPa Calm     96% 0.0 mm
00:50 18.6 °C 17.9 °C 1017.2 hPa Calm     96% 0.0 mm
00:55 18.6 °C 18.1 °C 1017.2 hPa Calm     97% 0.0 mm
01:00 18.7 °C 18.2 °C 1017.2 hPa Calm     97% 0.0 mm
01:05 18.8 °C 18.3 °C 1017.2 hPa Calm     97% 0.0 mm
01:10 18.9 °C 18.4 °C 1017.2 hPa Calm     97% 0.0 mm
01:15 18.8 °C 18.3 °C 1017.2 hPa Calm     97% 0.0 mm
01:20 18.7 °C 18.2 °C 1017.2 hPa Calm     97% 0.0 mm
01:25 18.7 °C 18.2 °C 1017.5 hPa Calm     97% 0.0 mm
01:30 18.7 °C 18.2 °C 1017.5 hPa Calm     97% 0.0 mm
01:35 18.9 °C 18.4 °C 1017.5 hPa Calm     97% 0.0 mm
01:40 19.0 °C 18.4 °C 1017.2 hPa Calm     96% 0.0 mm
01:45 19.0 °C 18.4 °C 1017.2 hPa Calm     96% 0.0 mm
01:50 19.0 °C 18.4 °C 1017.2 hPa Calm     96% 0.0 mm
01:55 19.1 °C 18.4 °C 1017.2 hPa Calm     96% 0.0 mm
02:00 19.3 °C 18.7 °C 1016.8 hPa Calm     96% 0.0 mm
02:05 19.5 °C 18.9 °C 1017.2 hPa Calm     96% 0.0 mm
02:10 19.6 °C 18.9 °C 1017.2 hPa Calm     96% 0.0 mm
02:15 19.5 °C 18.9 °C 1017.2 hPa Calm     96% 0.0 mm
02:20 19.3 °C 18.7 °C 1017.2 hPa Calm     96% 0.0 mm
02:25 19.2 °C 18.6 °C 1017.2 hPa Calm     96% 0.0 mm
02:30 19.1 °C 18.4 °C 1016.8 hPa Calm     96% 0.0 mm
02:35 18.9 °C 18.4 °C 1016.8 hPa Calm     97% 0.0 mm
02:40 18.7 °C 18.2 °C 1016.8 hPa Calm     97% 0.0 mm
02:45 18.6 °C 18.1 °C 1016.8 hPa Calm     97% 0.0 mm
02:50 18.6 °C 18.1 °C 1016.8 hPa Calm     97% 0.0 mm
02:55 18.6 °C 18.1 °C 1016.8 hPa Calm     97% 0.0 mm
03:00 18.9 °C 18.4 °C 1016.8 hPa Calm     97% 0.0 mm
03:05 18.9 °C 18.4 °C 1016.8 hPa Calm     97% 0.0 mm
03:10 18.7 °C 18.2 °C 1016.8 hPa Calm     97% 0.0 mm
03:15 18.7 °C 18.2 °C 1016.8 hPa Calm     97% 0.0 mm
03:20 18.6 °C 18.1 °C 1016.8 hPa ENE 1.1 km/h 2.6 km/h 97% 0.0 mm
03:23 18.5 °C 18.1 °C 1016.8 hPa ENE 1.1 km/h 2.6 km/h 97% 0.0 mm
03:29 18.7 °C 18.2 °C 1016.8 hPa Calm   2.6 km/h 97% 0.0 mm
03:34 18.7 °C 18.2 °C 1016.8 hPa Calm   2.6 km/h 97% 0.0 mm
03:39 18.7 °C 18.2 °C 1016.8 hPa Calm   1.1 km/h 97% 0.0 mm
03:44 18.7 °C 18.2 °C 1016.8 hPa Calm   1.1 km/h 97% 0.0 mm
03:49 18.9 °C 18.4 °C 1016.8 hPa Calm   1.1 km/h 97% 0.0 mm
03:54 18.9 °C 18.4 °C 1016.8 hPa Calm     97% 0.0 mm
03:59 18.9 °C 18.6 °C 1016.8 hPa Calm     98% 0.0 mm
04:04 18.9 °C 18.6 °C 1016.8 hPa Calm     98% 0.0 mm
04:09 19.0 °C 18.6 °C 1016.8 hPa Calm     97% 0.0 mm
04:14 19.1 °C 18.6 °C 1016.8 hPa Calm     97% 0.0 mm
04:19 19.1 °C 18.6 °C 1016.8 hPa Calm     97% 0.0 mm
04:24 19.1 °C 18.6 °C 1016.8 hPa Calm     97% 0.0 mm
04:29 19.0 °C 18.6 °C 1016.8 hPa Calm     97% 0.0 mm
04:34 19.0 °C 18.6 °C 1016.5 hPa Calm     97% 0.0 mm
04:39 19.0 °C 18.6 °C 1016.8 hPa Calm     97% 0.0 mm
04:44 19.1 °C 18.6 °C 1016.8 hPa Calm   2.6 km/h 97% 0.0 mm
04:49 19.2 °C 18.7 °C 1016.5 hPa Calm   2.6 km/h 97% 0.0 mm
04:54 19.3 °C 18.8 °C 1016.8 hPa Calm   1.1 km/h 97% 0.0 mm
04:59 19.3 °C 18.8 °C 1016.5 hPa Calm     97% 0.0 mm
05:04 19.4 °C 18.9 °C 1016.5 hPa Calm     97% 0.0 mm
05:09 19.5 °C 19.1 °C 1016.8 hPa Calm     97% 0.0 mm
05:14 19.4 °C 18.9 °C 1016.5 hPa Calm     97% 0.0 mm
05:19 19.3 °C 18.8 °C 1016.8 hPa Calm     97% 0.0 mm
05:24 19.2 °C 18.7 °C 1016.8 hPa Calm     97% 0.0 mm
05:29 19.1 °C 18.6 °C 1016.8 hPa Calm     97% 0.0 mm
05:34 19.1 °C 18.6 °C 1016.8 hPa Calm     97% 0.0 mm
05:39 19.0 °C 18.6 °C 1016.8 hPa Calm     97% 0.0 mm
05:44 19.1 °C 18.6 °C 1016.8 hPa Calm     97% 0.0 mm
05:49 19.0 °C 18.6 °C 1016.8 hPa Calm     97% 0.0 mm
05:54 19.0 °C 18.6 °C 1016.8 hPa Calm     97% 0.0 mm
05:59 19.0 °C 18.6 °C 1016.8 hPa Calm     97% 0.0 mm
06:04 18.9 °C 18.6 °C 1016.8 hPa Calm     98% 0.0 mm
06:10 18.7 °C 18.4 °C 1016.8 hPa Calm     98% 0.0 mm
06:15 18.7 °C 18.4 °C 1016.8 hPa Calm     98% 0.0 mm
06:20 18.6 °C 18.3 °C 1016.8 hPa SE 1.1 km/h 3.5 km/h 98% 0.0 mm
06:25 18.7 °C 18.4 °C 1017.2 hPa Calm   3.5 km/h 98% 0.0 mm
06:30 18.6 °C 18.3 °C 1017.2 hPa Calm   2.6 km/h 98% 0.0 mm
06:35 18.5 °C 18.2 °C 1017.2 hPa Calm   2.6 km/h 98% 0.0 mm
06:40 18.6 °C 18.3 °C 1017.2 hPa Calm     98% 0.0 mm
06:45 18.5 °C 18.2 °C 1017.2 hPa Calm     98% 0.0 mm
06:50 18.4 °C 18.1 °C 1017.2 hPa Calm     98% 0.0 mm
06:55 18.4 °C 18.1 °C 1017.5 hPa Calm     98% 0.0 mm
07:00 18.3 °C 18.0 °C 1017.2 hPa Calm     98% 0.0 mm
07:05 18.3 °C 18.0 °C 1017.2 hPa Calm     98% 0.0 mm
07:10 18.2 °C 17.9 °C 1017.2 hPa Calm     98% 0.0 mm
07:15 18.3 °C 18.0 °C 1017.5 hPa Calm     98% 0.0 mm
07:20 18.3 °C 18.0 °C 1017.5 hPa Calm     98% 0.0 mm
07:25 18.4 °C 18.1 °C 1017.5 hPa Calm     98% 0.0 mm
07:30 18.5 °C 18.2 °C 1017.5 hPa Calm     98% 0.0 mm
07:35 18.6 °C 18.3 °C 1017.5 hPa Calm     98% 0.0 mm
07:40 18.7 °C 18.4 °C 1017.5 hPa Calm     98% 0.0 mm
07:45 19.0 °C 18.6 °C 1017.5 hPa Calm     97% 0.0 mm
07:50 19.3 °C 18.8 °C 1017.5 hPa Calm     97% 0.0 mm
07:55 19.6 °C 19.1 °C 1017.5 hPa Calm     97% 0.0 mm
08:00 19.8 °C 19.5 °C 1017.5 hPa Calm     98% 0.0 mm
08:05 20.0 °C 19.5 °C 1017.8 hPa Calm   3.5 km/h 97% 0.0 mm
08:10 20.1 °C 19.6 °C 1017.5 hPa SSW 1.1 km/h 3.5 km/h 97% 0.0 mm
08:15 20.2 °C 19.7 °C 1017.8 hPa SSW 1.1 km/h 2.6 km/h 97% 0.0 mm
08:20 20.3 °C 19.8 °C 1017.8 hPa Calm   2.6 km/h 97% 0.0 mm
08:25 20.5 °C 20.0 °C 1017.8 hPa SSW 1.1 km/h 2.6 km/h 97% 0.0 mm
08:30 20.6 °C 20.1 °C 1017.8 hPa SSW 1.1 km/h 2.6 km/h 97% 0.0 mm
08:35 20.9 °C 20.4 °C 1018.2 hPa South 1.1 km/h 2.6 km/h 97% 0.0 mm
08:40 21.0 °C 20.3 °C 1017.8 hPa Calm   2.6 km/h 96% 0.0 mm
08:45 21.2 °C 20.6 °C 1018.2 hPa Calm   2.6 km/h 96% 0.0 mm
08:50 21.5 °C 20.8 °C 1017.8 hPa Calm   1.1 km/h 96% 0.0 mm
08:55 21.6 °C 20.9 °C 1017.8 hPa Calm     96% 0.0 mm
09:01 21.6 °C 20.9 °C 1017.8 hPa Calm     96% 0.0 mm
09:06 21.6 °C 20.9 °C 1017.8 hPa NW 2.6 km/h 5.0 km/h 96% 0.3 mm
09:11 21.4 °C 20.8 °C 1017.8 hPa NW 3.5 km/h 6.1 km/h 96% 0.3 mm
09:16 21.4 °C 20.8 °C 1017.8 hPa NNW 2.6 km/h 6.1 km/h 96% 0.3 mm
09:21 21.4 °C 20.8 °C 1017.8 hPa NNW 5.0 km/h 7.2 km/h 96% 0.3 mm
09:26 21.5 °C 20.8 °C 1017.8 hPa NNW 3.5 km/h 7.2 km/h 96% 0.5 mm
09:31 21.5 °C 20.8 °C 1017.8 hPa North 3.5 km/h 11.1 km/h 96% 1.3 mm
09:36 21.6 °C 20.8 °C 1017.8 hPa NNW 2.6 km/h 11.1 km/h 95% 1.5 mm
09:41 21.8 °C 21.0 °C 1017.8 hPa NW 1.1 km/h 7.2 km/h 95% 1.5 mm
09:46 22.1 °C 21.3 °C 1017.8 hPa NW 3.5 km/h 6.1 km/h 95% 1.5 mm
09:51 22.7 °C 21.9 °C 1017.8 hPa NNW 3.5 km/h 8.7 km/h 95% 1.5 mm
09:56 22.8 °C 21.8 °C 1017.8 hPa NNW 6.1 km/h 13.4 km/h 94% 1.5 mm
10:01 23.4 °C 22.8 °C 1017.8 hPa NNW 8.7 km/h 13.4 km/h 96% 1.5 mm
10:06 23.7 °C 22.9 °C 1017.8 hPa NNW 6.1 km/h 12.2 km/h 95% 1.5 mm
10:11 24.4 °C 23.2 °C 1018.2 hPa NNW 8.7 km/h 14.8 km/h 93% 1.5 mm
10:16 24.5 °C 22.9 °C 1017.8 hPa NNW 12.2 km/h 19.5 km/h 91% 1.5 mm
10:21 24.7 °C 22.8 °C 1017.8 hPa North 13.4 km/h 19.5 km/h 89% 1.5 mm
10:26 25.0 °C 22.3 °C 1017.8 hPa North 13.4 km/h 18.3 km/h 85% 1.3 mm
10:31 24.7 °C 21.7 °C 1018.2 hPa North 7.2 km/h 17.2 km/h 83% 0.5 mm
10:36 24.4 °C 21.6 °C 1017.8 hPa North 7.2 km/h 18.3 km/h 84% 0.3 mm
10:41 23.9 °C 21.2 °C 1017.8 hPa North 12.2 km/h 18.3 km/h 85% 0.3 mm
10:46 23.8 °C 21.3 °C 1018.2 hPa NNW 12.2 km/h 18.3 km/h 86% 0.3 mm
10:51 24.7 °C 22.2 °C 1018.2 hPa NNW 7.2 km/h 18.3 km/h 86% 0.3 mm
10:56 24.9 °C 21.8 °C 1018.2 hPa NNW 11.1 km/h 18.3 km/h 83% 0.3 mm
11:01 24.9 °C 22.1 °C 1018.2 hPa NNW 13.4 km/h 18.3 km/h 84% 0.0 mm
11:07 25.4 °C 22.6 °C 1018.2 hPa NNW 7.2 km/h 18.3 km/h 84% 0.0 mm
11:12 25.1 °C 21.6 °C 1018.2 hPa NW 12.2 km/h 18.3 km/h 81% 0.0 mm
11:17 24.7 °C 21.7 °C 1018.2 hPa NW 12.2 km/h 18.3 km/h 83% 0.0 mm
11:22 25.0 °C 21.7 °C 1018.2 hPa NNW 17.2 km/h 20.9 km/h 82% 0.0 mm
11:27 25.3 °C 21.8 °C 1018.2 hPa NNW 8.7 km/h 20.9 km/h 81% 0.0 mm
11:32 25.4 °C 21.3 °C 1018.2 hPa NW 12.2 km/h 20.9 km/h 78% 0.0 mm
11:37 25.6 °C 21.5 °C 1018.2 hPa NNW 11.1 km/h 18.3 km/h 78% 0.0 mm
11:42 25.4 °C 21.3 °C 1018.2 hPa North 5.0 km/h 18.3 km/h 78% 0.0 mm
11:47 25.7 °C 21.8 °C 1018.2 hPa NNW 7.2 km/h 17.2 km/h 79% 0.0 mm
11:52 25.7 °C 21.6 °C 1018.2 hPa North 8.7 km/h 17.2 km/h 78% 0.0 mm
11:57 25.4 °C 21.1 °C 1018.2 hPa NNW 9.7 km/h 18.3 km/h 77% 0.0 mm
12:02 25.4 °C 21.7 °C 1018.2 hPa NNW 13.4 km/h 18.3 km/h 80% 0.3 mm
12:07 25.7 °C 21.6 °C 1018.5 hPa North 12.2 km/h 19.5 km/h 78% 0.3 mm
12:12 25.8 °C 22.1 °C 1018.2 hPa NNW 8.7 km/h 19.5 km/h 80% 0.3 mm
12:17 25.8 °C 21.3 °C 1018.5 hPa NNW 12.2 km/h 21.9 km/h 76% 0.3 mm
12:22 25.8 °C 21.5 °C 1018.5 hPa NNW 11.1 km/h 21.9 km/h 77% 0.3 mm
12:27 25.7 °C 21.4 °C 1018.5 hPa NNW 11.1 km/h 21.9 km/h 77% 0.3 mm
12:32 25.1 °C 21.4 °C 1018.5 hPa NW 12.2 km/h 20.9 km/h 80% 0.3 mm
12:37 24.2 °C 21.2 °C 1018.5 hPa NW 6.1 km/h 18.3 km/h 83% 0.3 mm
12:42 23.7 °C 21.4 °C 1018.5 hPa NW 5.0 km/h 17.2 km/h 87% 0.3 mm
12:47 23.5 °C 21.6 °C 1018.5 hPa NNW 6.1 km/h 14.8 km/h 89% 0.3 mm
12:52 23.4 °C 21.7 °C 1018.5 hPa NNW 7.2 km/h 13.4 km/h 90% 0.3 mm
12:57 23.3 °C 21.4 °C 1018.5 hPa NNW 2.6 km/h 12.2 km/h 89% 0.3 mm
13:02 23.5 °C 21.6 °C 1018.5 hPa NNW 7.2 km/h 11.1 km/h 89% 0.0 mm
13:07 23.5 °C 21.8 °C 1018.2 hPa NW 5.0 km/h 11.1 km/h 90% 0.0 mm
13:12 23.5 °C 21.8 °C 1018.5 hPa WNW 7.2 km/h 11.1 km/h 90% 0.0 mm
13:17 23.4 °C 21.7 °C 1018.2 hPa WNW 11.1 km/h 14.8 km/h 90% 0.0 mm
13:22 23.5 °C 22.2 °C 1018.5 hPa NW 6.1 km/h 14.8 km/h 92% 0.0 mm
13:27 24.2 °C 22.7 °C 1018.2 hPa NW 8.7 km/h 13.4 km/h 91% 0.0 mm
13:32 25.1 °C 23.4 °C 1018.2 hPa NNW 5.0 km/h 12.2 km/h 90% 0.0 mm
13:37 25.0 °C 22.3 °C 1018.2 hPa NNW 7.2 km/h 12.2 km/h 85% 0.0 mm
13:42 25.3 °C 22.2 °C 1018.2 hPa NNW 11.1 km/h 12.2 km/h 83% 0.0 mm
13:47 25.7 °C 22.4 °C 1018.2 hPa NNW 9.7 km/h 15.8 km/h 82% 0.0 mm
13:52 25.8 °C 22.1 °C 1018.2 hPa NNW 11.1 km/h 15.8 km/h 80% 0.0 mm
13:57 25.7 °C 22.0 °C 1018.2 hPa NNW 11.1 km/h 18.3 km/h 80% 0.0 mm
14:02 25.8 °C 21.7 °C 1018.2 hPa NNW 11.1 km/h 18.3 km/h 78% 0.0 mm
14:07 26.6 °C 22.1 °C 1018.2 hPa NNW 9.7 km/h 17.2 km/h 76% 0.0 mm
14:12 25.8 °C 21.3 °C 1018.2 hPa NW 6.1 km/h 17.2 km/h 76% 0.0 mm
14:17 26.6 °C 22.1 °C 1018.2 hPa WNW 7.2 km/h 17.2 km/h 76% 0.0 mm
14:22 26.9 °C 21.4 °C 1018.2 hPa NW 8.7 km/h 18.3 km/h 72% 0.0 mm
14:27 26.9 °C 21.2 °C 1017.8 hPa NW 6.1 km/h 18.3 km/h 71% 0.0 mm
14:33 27.4 °C 21.2 °C 1018.2 hPa NW 7.2 km/h 17.2 km/h 69% 0.0 mm
14:38 27.2 °C 20.6 °C 1018.2 hPa NW 8.7 km/h 15.8 km/h 67% 0.0 mm
14:43 27.2 °C 20.6 °C 1017.8 hPa WNW 7.2 km/h 15.8 km/h 67% 0.0 mm
14:48 27.8 °C 21.4 °C 1017.8 hPa NW 9.7 km/h 14.8 km/h 68% 0.0 mm
14:53 27.2 °C 20.8 °C 1017.8 hPa NW 8.7 km/h 14.8 km/h 68% 0.0 mm
14:58 27.1 °C 20.7 °C 1017.8 hPa NW 5.0 km/h 14.8 km/h 68% 0.0 mm
15:03 27.2 °C 20.3 °C 1017.8 hPa NW 9.7 km/h 15.8 km/h 66% 0.0 mm
15:08 26.8 °C 20.7 °C 1017.8 hPa WNW 8.7 km/h 17.2 km/h 69% 0.0 mm
15:13 26.6 °C 20.2 °C 1017.8 hPa NW 11.1 km/h 17.2 km/h 68% 0.0 mm
15:18 26.6 °C 20.4 °C 1017.8 hPa NW 7.2 km/h 15.8 km/h 69% 0.0 mm
15:23 26.8 °C 20.7 °C 1017.8 hPa NW 8.7 km/h 15.8 km/h 69% 0.0 mm
15:28 26.7 °C 20.6 °C 1017.5 hPa WNW 11.1 km/h 15.8 km/h 69% 0.0 mm
15:33 26.7 °C 20.6 °C 1017.5 hPa NW 9.7 km/h 17.2 km/h 69% 0.0 mm
15:38 26.6 °C 20.4 °C 1017.5 hPa NW 11.1 km/h 17.2 km/h 69% 0.0 mm
15:43 26.6 °C 20.7 °C 1017.5 hPa NW 11.1 km/h 18.3 km/h 70% 0.0 mm
15:51 26.6 °C 21.2 °C 1017.5 hPa NW 11.1 km/h 18.3 km/h 72% 0.0 mm
15:56 26.9 °C 21.2 °C 1017.5 hPa WNW 11.1 km/h 17.2 km/h 71% 0.0 mm
16:01 27.0 °C 20.8 °C 1017.2 hPa WNW 9.7 km/h 17.2 km/h 69% 0.0 mm
16:06 27.1 °C 20.7 °C 1017.2 hPa WNW 6.1 km/h 17.2 km/h 68% 0.0 mm
16:11 27.8 °C 20.7 °C 1017.2 hPa West 6.1 km/h 14.8 km/h 65% 0.0 mm
16:16 27.0 °C 19.9 °C 1017.2 hPa WNW 9.7 km/h 14.8 km/h 65% 0.0 mm
16:24 27.1 °C 20.2 °C 1017.2 hPa NW 11.1 km/h 15.8 km/h 66% 0.0 mm
16:29 26.9 °C 20.3 °C 1017.2 hPa NW 9.7 km/h 15.8 km/h 67% 0.0 mm
16:34 26.7 °C 20.6 °C 1017.2 hPa WNW 11.1 km/h 17.2 km/h 69% 0.0 mm
16:39 26.9 °C 20.8 °C 1017.2 hPa NW 6.1 km/h 17.2 km/h 69% 0.0 mm
16:44 27.9 °C 21.2 °C 1017.2 hPa WNW 5.0 km/h 17.2 km/h 67% 0.0 mm
16:49 27.0 °C 19.9 °C 1017.2 hPa WNW 5.0 km/h 14.8 km/h 65% 0.0 mm
16:54 26.6 °C 20.2 °C 1017.2 hPa WNW 7.2 km/h 15.8 km/h 68% 0.0 mm
16:59 26.6 °C 20.7 °C 1017.2 hPa WNW 8.7 km/h 15.8 km/h 70% 0.0 mm
17:04 25.8 °C 20.2 °C 1017.2 hPa NW 9.7 km/h 14.8 km/h 71% 0.0 mm
17:10 25.8 °C 20.6 °C 1017.2 hPa NW 7.2 km/h 14.8 km/h 73% 0.0 mm
17:15 26.6 °C 20.9 °C 1017.2 hPa NW 5.0 km/h 13.4 km/h 71% 0.0 mm
17:20 26.6 °C 20.7 °C 1016.8 hPa NW 7.2 km/h 14.8 km/h 70% 0.0 mm
17:25 26.6 °C 20.4 °C 1017.2 hPa NW 7.2 km/h 14.8 km/h 69% 0.0 mm
17:31 26.6 °C 20.4 °C 1016.8 hPa WNW 6.1 km/h 13.4 km/h 69% 0.0 mm
17:37 26.6 °C 20.9 °C 1016.8 hPa NW 6.1 km/h 13.4 km/h 71% 0.0 mm
17:42 26.6 °C 20.7 °C 1017.2 hPa NW 8.7 km/h 13.4 km/h 70% 0.0 mm
17:47 26.6 °C 20.4 °C 1016.8 hPa WNW 11.1 km/h 14.8 km/h 69% 0.0 mm
17:52 25.8 °C 20.2 °C 1016.8 hPa NW 8.7 km/h 14.8 km/h 71% 0.0 mm
17:57 25.8 °C 20.2 °C 1016.8 hPa NW 6.1 km/h 13.4 km/h 71% 0.0 mm
18:02 26.6 °C 20.4 °C 1016.8 hPa NW 9.7 km/h 12.2 km/h 69% 0.0 mm
18:07 26.6 °C 20.4 °C 1016.8 hPa NW 6.1 km/h 12.2 km/h 69% 0.0 mm
18:12 26.6 °C 20.4 °C 1016.8 hPa WNW 3.5 km/h 12.2 km/h 69% 0.0 mm
18:17 25.7 °C 19.8 °C 1016.8 hPa WNW 6.1 km/h 12.2 km/h 70% 0.0 mm
Waitara, Taranaki. New Zealand Historic Data
Compliments of Weather Underground - 2 mb